Time;durP1;ratioP1;P1;durP2;ratioP2;P2;SDS_P1;SDS_P2;PMS_P1;PMS_P2;Temp;Humidity;BMP_temperature;BMP_pressure;BME280_temperature;BME280_humidity;BME280_pressure;Samples;Min_cycle;Max_cycle;Signal;HPM_P1;HPM_P2
2022/04/30 00:00:36;;;;;;;26.93;18.03;;;15.80;32.10;;;;;;4999837;28;20428;-69
2022/04/30 00:03:02;;;;;;;30.80;17.60;;;15.80;35.10;;;;;;4993014;28;20213;-70
2022/04/30 00:05:30;;;;;;;26.70;18.00;;;15.80;33.60;;;;;;4997746;28;20180;-70
2022/04/30 00:07:56;;;;;;;29.03;18.77;;;15.90;34.00;;;;;;5004878;28;20421;-70
2022/04/30 00:10:23;;;;;;;27.43;18.80;;;15.80;35.20;;;;;;4994130;28;20421;-69
2022/04/30 00:12:49;;;;;;;27.57;17.50;;;15.70;35.80;;;;;;5000540;28;20458;-70
2022/04/30 00:15:15;;;;;;;25.57;17.47;;;15.80;35.10;;;;;;5007884;28;20991;-70
2022/04/30 00:17:40;;;;;;;28.87;17.47;;;15.90;32.60;;;;;;4999655;28;20419;-70
2022/04/30 00:20:07;;;;;;;27.67;17.70;;;16.10;31.10;;;;;;4994150;28;20224;-70
2022/04/30 00:22:33;;;;;;;27.63;18.23;;;16.00;32.80;;;;;;4993435;28;20203;-70
2022/04/30 00:24:59;;;;;;;27.37;18.73;;;15.90;33.70;;;;;;4993064;28;20454;-70
2022/04/30 00:27:24;;;;;;;41.40;17.70;;;15.70;37.60;;;;;;4994149;28;20175;-70
2022/04/30 00:29:50;;;;;;;27.60;18.53;;;15.50;37.50;;;;;;4993845;28;20276;-70
2022/04/30 00:32:16;;;;;;;31.90;19.07;;;15.50;37.50;;;;;;4993295;28;20302;-70
2022/04/30 00:34:42;;;;;;;28.20;18.67;;;15.50;37.50;;;;;;4992904;28;20466;-70
2022/04/30 00:37:08;;;;;;;31.93;19.07;;;15.40;37.40;;;;;;4993587;28;20191;-70
2022/04/30 00:39:35;;;;;;;30.30;18.10;;;15.50;36.90;;;;;;4975876;28;20429;-70
2022/04/30 00:42:01;;;;;;;30.67;17.50;;;15.50;37.50;;;;;;4993306;28;20208;-70
2022/04/30 00:44:27;;;;;;;29.73;18.80;;;15.50;36.20;;;;;;4993087;28;20425;-70
2022/04/30 00:46:54;;;;;;;37.57;16.57;;;15.40;36.60;;;;;;4993300;28;20439;-69
2022/04/30 00:49:19;;;;;;;22.00;15.33;;;15.60;37.60;;;;;;4995570;28;20778;-69
2022/04/30 00:51:45;;;;;;;27.27;17.60;;;15.80;34.80;;;;;;4993801;28;20491;-70
2022/04/30 00:54:13;;;;;;;23.53;16.03;;;15.90;34.30;;;;;;4993502;28;20424;-70
2022/04/30 00:56:47;;;;;;;28.10;16.20;;;16.00;32.30;;;;;;4991904;28;21006;-71
2022/04/30 00:59:17;;;;;;;23.67;16.53;;;15.90;34.40;;;;;;4995613;28;20423;-70
2022/04/30 01:01:44;;;;;;;23.93;17.23;;;15.90;35.50;;;;;;4992114;28;20436;-71
2022/04/30 01:04:11;;;;;;;24.37;16.20;;;15.80;37.70;;;;;;4979926;28;20427;-69
2022/04/30 01:06:56;;;;;;;24.80;15.83;;;15.60;36.10;;;;;;4991329;28;20853;-70
2022/04/30 01:09:24;;;;;;;23.27;16.20;;;15.50;34.90;;;;;;4994078;28;20506;-70
2022/04/30 01:12:06;;;;;;;26.63;16.93;;;15.50;34.50;;;;;;4992918;28;20462;-70
2022/04/30 01:14:34;;;;;;;45.13;18.00;;;15.50;34.60;;;;;;4991526;28;20432;-70
2022/04/30 01:17:02;;;;;;;25.27;15.90;;;15.50;34.50;;;;;;4990768;28;20801;-70
2022/04/30 01:19:28;;;;;;;24.07;16.00;;;15.10;34.60;;;;;;4992595;28;20428;-70
2022/04/30 01:21:59;;;;;;;27.90;17.30;;;14.50;36.50;;;;;;4992887;28;20444;-70
2022/04/30 01:24:27;;;;;;;26.20;18.13;;;14.20;39.20;;;;;;4990220;28;20446;-66
2022/04/30 01:26:53;;;;;;;26.60;17.57;;;13.60;40.40;;;;;;4991099;28;20869;-69
2022/04/30 01:29:21;;;;;;;31.03;18.00;;;13.60;40.10;;;;;;4991480;28;20506;-70
2022/04/30 01:37:28;;;;;;;27.10;17.57;;;14.40;36.40;;;;;;5000824;28;20771;-71
2022/04/30 01:40:03;;;;;;;28.17;18.70;;;14.70;34.40;;;;;;4994326;28;20427;-70
2022/04/30 01:42:30;;;;;;;28.17;17.87;;;14.80;34.70;;;;;;4989092;28;21227;-70
2022/04/30 01:44:58;;;;;;;25.40;17.63;;;14.90;32.90;;;;;;4998578;28;20771;-70
2022/04/30 01:47:24;;;;;;;25.80;17.53;;;14.90;33.30;;;;;;4989710;28;20510;-70
2022/04/30 01:49:51;;;;;;;24.00;16.47;;;15.00;33.40;;;;;;4994635;28;20784;-70
2022/04/30 01:52:17;;;;;;;29.50;18.20;;;15.20;35.90;;;;;;4979900;28;21081;-70
2022/04/30 01:54:43;;;;;;;25.20;18.20;;;15.20;37.20;;;;;;4999285;28;20416;-70
2022/04/30 01:57:08;;;;;;;26.73;17.27;;;15.20;36.60;;;;;;4993077;28;20465;-70
2022/04/30 01:59:34;;;;;;;34.73;17.67;;;15.10;36.90;;;;;;4996292;28;20433;-70
2022/04/30 02:02:02;;;;;;;29.63;19.17;;;15.10;36.30;;;;;;4998095;28;20208;-70
2022/04/30 02:04:28;;;;;;;24.70;17.10;;;15.20;36.10;;;;;;4998148;28;20920;-70
2022/04/30 02:06:55;;;;;;;30.17;17.80;;;15.30;35.20;;;;;;4995807;28;20430;-70
2022/04/30 02:09:22;;;;;;;25.63;17.07;;;15.30;33.60;;;;;;4992017;28;20914;-67
2022/04/30 02:11:49;;;;;;;29.90;18.83;;;15.50;33.50;;;;;;4990486;28;20555;-67
2022/04/30 02:14:15;;;;;;;23.90;18.60;;;15.60;33.30;;;;;;4998303;28;20443;-68
2022/04/30 02:16:42;;;;;;;35.70;19.20;;;15.50;35.00;;;;;;5002759;28;20575;-68
2022/04/30 02:19:09;;;;;;;31.83;20.03;;;15.60;34.80;;;;;;4992001;28;20478;-68
2022/04/30 02:21:35;;;;;;;41.23;19.97;;;15.70;36.40;;;;;;4991551;28;20435;-70
2022/04/30 02:24:03;;;;;;;29.77;19.97;;;15.80;33.70;;;;;;4990243;28;20504;-70
2022/04/30 02:26:28;;;;;;;33.07;19.90;;;15.80;34.30;;;;;;4992308;28;20464;-70
2022/04/30 02:28:58;;;;;;;29.20;19.50;;;15.70;36.70;;;;;;4998456;28;20850;-70
2022/04/30 02:31:25;;;;;;;34.33;20.63;;;15.50;37.50;;;;;;4995896;28;20551;-70
2022/04/30 02:33:56;;;;;;;30.03;20.93;;;15.60;36.50;;;;;;4992322;28;20459;-70
2022/04/30 02:36:30;;;;;;;32.87;21.83;;;15.70;36.90;;;;;;4991812;28;20545;-70
2022/04/30 02:38:57;;;;;;;38.47;22.43;;;15.80;35.60;;;;;;4995417;28;20442;-69
2022/04/30 02:41:23;;;;;;;33.30;21.67;;;15.80;34.80;;;;;;5000162;28;20518;-67
2022/04/30 02:43:50;;;;;;;39.70;23.47;;;15.80;34.20;;;;;;4998411;28;20542;-68
2022/04/30 02:46:17;;;;;;;47.43;23.80;;;15.80;34.70;;;;;;4977828;28;20444;-68
2022/04/30 02:48:43;;;;;;;36.60;23.13;;;15.90;35.20;;;;;;4999867;28;20428;-67
2022/04/30 02:51:10;;;;;;;37.20;23.60;;;15.90;34.60;;;;;;4997634;28;20901;-68
2022/04/30 02:53:37;;;;;;;41.33;23.97;;;16.10;35.10;;;;;;5001247;28;21012;-68
2022/04/30 02:56:03;;;;;;;35.93;24.07;;;16.00;34.70;;;;;;4990889;28;20795;-67
2022/04/30 03:01:13;;;;;;;38.73;24.90;;;16.00;35.80;;;;;;4985564;28;20523;-68
2022/04/30 03:03:39;;;;;;;42.13;23.80;;;16.00;35.60;;;;;;5007360;28;20530;-68
2022/04/30 03:06:06;;;;;;;48.83;24.30;;;16.00;35.80;;;;;;4991772;28;20651;-68
2022/04/30 03:08:32;;;;;;;41.47;26.73;;;15.90;37.80;;;;;;4991536;28;20772;-68
2022/04/30 03:10:58;;;;;;;38.47;24.20;;;15.90;39.20;;;;;;4992546;28;20966;-68
2022/04/30 03:13:24;;;;;;;40.53;25.37;;;15.90;39.00;;;;;;5004309;28;20440;-68
2022/04/30 03:15:52;;;;;;;39.90;23.70;;;16.00;36.20;;;;;;4991061;28;20993;-70
2022/04/30 03:23:39;;;;;;;46.80;24.00;;;15.70;37.60;;;;;;4999043;28;20456;-69
2022/04/30 03:26:06;;;;;;;40.83;24.17;;;16.00;36.50;;;;;;4999884;28;20436;-68
2022/04/30 03:28:36;;;;;;;41.60;25.23;;;16.10;36.10;;;;;;5003893;28;20477;-68
2022/04/30 03:31:05;;;;;;;42.10;24.40;;;16.20;35.60;;;;;;4998338;28;20459;-68
2022/04/30 03:33:31;;;;;;;39.80;23.10;;;15.60;36.80;;;;;;5004214;28;20460;-68
2022/04/30 03:35:57;;;;;;;36.20;24.97;;;14.60;41.00;;;;;;5007514;28;20518;-68
2022/04/30 03:38:23;;;;;;;51.73;24.50;;;14.20;43.80;;;;;;4998506;28;20423;-68
2022/04/30 03:40:49;;;;;;;35.43;24.80;;;14.70;42.10;;;;;;4989923;28;20523;-68
2022/04/30 03:43:18;;;;;;;43.60;24.17;;;15.30;40.80;;;;;;4990279;28;20637;-68
2022/04/30 03:45:44;;;;;;;41.10;23.80;;;15.20;39.70;;;;;;5005207;28;20677;-67
2022/04/30 03:48:12;;;;;;;35.57;23.67;;;15.00;40.70;;;;;;4991879;28;20432;-68
2022/04/30 03:50:37;;;;;;;37.40;23.70;;;15.10;39.80;;;;;;4994619;28;20494;-68
2022/04/30 03:53:03;;;;;;;34.97;23.13;;;15.20;40.00;;;;;;4993377;28;20480;-68
2022/04/30 03:55:30;;;;;;;35.03;22.07;;;15.10;38.90;;;;;;4987652;28;20189;-71
2022/04/30 03:57:56;;;;;;;45.83;24.00;;;14.80;40.90;;;;;;4994559;28;20425;-68
2022/04/30 04:00:22;;;;;;;39.20;23.70;;;15.10;41.00;;;;;;4993388;28;20487;-68
2022/04/30 04:02:48;;;;;;;43.87;22.73;;;14.70;40.80;;;;;;4994679;28;20938;-67
2022/04/30 04:05:17;;;;;;;35.50;23.63;;;14.20;43.30;;;;;;4993696;28;20444;-68
2022/04/30 04:07:44;;;;;;;42.73;24.73;;;14.30;44.40;;;;;;4994813;28;20432;-69
2022/04/30 04:10:11;;;;;;;38.20;23.77;;;13.90;45.90;;;;;;4993990;28;20463;-68
2022/04/30 04:12:37;;;;;;;39.77;24.33;;;14.00;47.40;;;;;;4993793;28;20530;-68
2022/04/30 04:17:49;;;;;;;40.23;24.57;;;13.60;48.00;;;;;;4993515;28;20456;-68
2022/04/30 04:20:17;;;;;;;35.63;23.80;;;13.90;46.30;;;;;;4995558;28;20476;-68
2022/04/30 04:22:43;;;;;;;45.90;23.77;;;13.60;48.40;;;;;;4980340;28;20535;-69
2022/04/30 04:27:54;;;;;;;39.57;23.20;;;14.10;46.50;;;;;;4994190;28;20451;-68
2022/04/30 04:30:24;;;;;;;41.53;24.37;;;14.10;45.60;;;;;;4978738;28;20816;-69
2022/04/30 04:32:50;;;;;;;38.33;24.67;;;13.90;46.40;;;;;;5001879;28;20476;-71
2022/04/30 04:35:16;;;;;;;35.07;23.40;;;13.70;47.20;;;;;;4992021;28;20450;-71
2022/04/30 04:37:43;;;;;;;51.40;25.40;;;13.40;49.20;;;;;;4996564;28;20435;-71
2022/04/30 04:40:11;;;;;;;46.40;25.67;;;13.70;48.10;;;;;;4995929;28;20412;-71
2022/04/30 04:42:37;;;;;;;43.67;24.93;;;14.00;46.50;;;;;;4992602;28;20475;-71
2022/04/30 04:45:04;;;;;;;35.27;23.30;;;14.10;45.50;;;;;;4993157;28;20424;-69
2022/04/30 04:47:30;;;;;;;41.70;25.70;;;13.70;48.30;;;;;;5001738;28;20428;-69
2022/04/30 04:49:55;;;;;;;36.00;24.50;;;13.90;48.30;;;;;;4993868;28;20945;-69
2022/04/30 04:52:24;;;;;;;42.83;24.57;;;13.70;49.10;;;;;;4993339;28;20469;-70
2022/04/30 04:54:50;;;;;;;43.73;25.07;;;13.70;49.00;;;;;;4993377;28;20209;-70
2022/04/30 04:57:15;;;;;;;34.77;23.30;;;13.80;48.40;;;;;;4982031;28;20471;-70
2022/04/30 04:59:41;;;;;;;42.40;24.17;;;14.20;47.30;;;;;;4997825;28;20560;-71
2022/04/30 05:02:07;;;;;;;40.97;24.20;;;13.90;48.00;;;;;;4986587;28;20206;-70
2022/04/30 05:04:33;;;;;;;38.20;25.07;;;13.80;50.40;;;;;;5003228;28;20443;-70
2022/04/30 05:07:00;;;;;;;41.90;25.27;;;13.80;50.70;;;;;;5004545;28;20270;-70
2022/04/30 05:09:26;;;;;;;46.10;26.23;;;13.80;51.50;;;;;;5000033;28;20484;-70
2022/04/30 05:11:54;;;;;;;35.20;24.90;;;13.60;53.40;;;;;;4999626;28;20473;-70
2022/04/30 05:14:20;;;;;;;43.47;26.20;;;13.70;56.80;;;;;;4993444;28;20967;-71
2022/04/30 05:16:46;;;;;;;44.50;26.67;;;13.70;54.40;;;;;;5007921;28;20968;-69
2022/04/30 05:19:11;;;;;;;47.93;28.37;;;13.80;54.30;;;;;;5002808;28;20522;-70
2022/04/30 05:21:37;;;;;;;48.80;27.90;;;14.20;54.40;;;;;;5004216;28;20186;-71
2022/04/30 05:24:03;;;;;;;43.30;26.33;;;14.80;50.20;;;;;;4994842;28;20226;-70
2022/04/30 05:26:28;;;;;;;45.23;26.77;;;14.80;49.50;;;;;;4998380;28;20528;-70
2022/04/30 05:28:54;;;;;;;41.83;26.10;;;14.40;52.70;;;;;;4992283;28;20438;-71
2022/04/30 05:31:20;;;;;;;47.53;27.43;;;14.00;53.90;;;;;;5003968;28;20196;-70
2022/04/30 05:33:45;;;;;;;40.77;27.23;;;14.00;55.10;;;;;;5011632;28;20223;-70
2022/04/30 05:36:11;;;;;;;44.63;28.23;;;14.10;57.50;;;;;;5002745;28;20267;-71
2022/04/30 05:38:37;;;;;;;52.90;28.10;;;14.60;52.80;;;;;;5012670;28;20173;-71
2022/04/30 05:41:03;;;;;;;41.90;27.03;;;14.80;51.20;;;;;;5004075;28;20214;-70
2022/04/30 05:43:29;;;;;;;41.33;27.23;;;14.90;50.40;;;;;;5004768;28;20208;-69
2022/04/30 05:45:54;;;;;;;41.00;27.10;;;14.30;53.80;;;;;;5012404;28;20415;-71
2022/04/30 05:48:20;;;;;;;45.43;28.30;;;14.20;54.90;;;;;;4993488;28;20780;-70
2022/04/30 05:50:46;;;;;;;51.40;26.77;;;14.20;56.60;;;;;;4992283;28;20595;-70
2022/04/30 05:53:11;;;;;;;48.97;28.60;;;14.10;57.60;;;;;;5000371;28;20722;-71
2022/04/30 05:55:37;;;;;;;44.67;27.63;;;14.10;59.00;;;;;;4996983;28;20662;-71
2022/04/30 05:58:03;;;;;;;45.60;28.37;;;14.30;57.60;;;;;;4994713;28;20184;-70
2022/04/30 06:00:29;;;;;;;40.30;27.07;;;13.90;59.30;;;;;;5000320;28;20651;-70
2022/04/30 06:02:55;;;;;;;49.03;29.40;;;14.00;60.30;;;;;;4991420;28;20460;-71
2022/04/30 06:05:21;;;;;;;44.67;28.53;;;14.50;58.20;;;;;;4999960;28;20424;-70
2022/04/30 06:07:48;;;;;;;47.43;28.00;;;13.90;61.40;;;;;;4990858;28;20185;-69
2022/04/30 06:10:15;;;;;;;46.27;29.07;;;13.70;62.30;;;;;;4988555;28;20462;-71
2022/04/30 06:12:40;;;;;;;47.77;27.20;;;14.00;60.30;;;;;;4996822;28;20489;-71
2022/04/30 06:15:06;;;;;;;48.97;28.20;;;13.90;61.80;;;;;;4994727;28;20432;-69
2022/04/30 06:17:33;;;;;;;47.40;29.03;;;14.00;62.20;;;;;;5001912;28;20550;-70
2022/04/30 06:19:59;;;;;;;39.93;27.13;;;14.20;60.60;;;;;;4976119;28;20971;-70
2022/04/30 06:22:24;;;;;;;41.00;26.80;;;14.10;61.90;;;;;;4998553;28;20864;-70
2022/04/30 06:24:50;;;;;;;38.23;27.17;;;14.10;60.40;;;;;;4987518;28;20842;-71
2022/04/30 06:27:16;;;;;;;44.97;27.73;;;14.00;62.00;;;;;;4993056;28;20198;-70
2022/04/30 06:29:42;;;;;;;44.40;26.93;;;13.60;66.50;;;;;;4996030;28;20430;-70
2022/04/30 06:32:09;;;;;;;45.83;28.10;;;13.70;65.50;;;;;;4992238;28;20476;-70
2022/04/30 06:34:34;;;;;;;46.17;29.90;;;14.20;65.40;;;;;;4999928;28;20181;-70
2022/04/30 06:37:00;;;;;;;45.23;28.23;;;14.70;59.00;;;;;;4992063;28;20462;-70
2022/04/30 06:39:26;;;;;;;41.63;27.97;;;14.60;57.90;;;;;;4993598;28;20188;-70
2022/04/30 06:41:51;;;;;;;43.30;28.23;;;14.50;59.40;;;;;;4991003;28;20199;-70
2022/04/30 06:44:17;;;;;;;46.77;30.40;;;14.40;61.80;;;;;;4991596;28;20183;-71
2022/04/30 06:46:43;;;;;;;47.90;28.63;;;14.40;63.30;;;;;;4991903;28;20179;-70
2022/04/30 06:49:08;;;;;;;41.57;26.93;;;14.40;61.90;;;;;;4991862;28;20189;-70
2022/04/30 06:51:34;;;;;;;42.47;26.87;;;14.40;61.80;;;;;;4991269;28;20233;-70
2022/04/30 06:59:28;;;;;;;41.77;26.90;;;13.80;67.50;;;;;;4991775;28;20453;-71
2022/04/30 07:02:01;;;;;;;51.67;29.80;;;13.70;67.70;;;;;;4991114;28;20849;-71
2022/04/30 07:04:28;;;;;;;49.07;29.10;;;13.90;70.70;;;;;;4973877;28;20467;-70
2022/04/30 07:06:54;;;;;;;40.90;27.97;;;14.00;70.00;;;;;;4991611;28;20433;-71
2022/04/30 07:09:20;;;;;;;42.33;28.03;;;14.10;66.20;;;;;;4991470;28;20444;-70
2022/04/30 07:11:46;;;;;;;44.87;29.83;;;14.10;68.00;;;;;;4990963;28;20558;-71
2022/04/30 07:14:11;;;;;;;46.00;28.60;;;14.60;64.00;;;;;;4991336;28;20170;-71
2022/04/30 07:16:38;;;;;;;47.03;29.90;;;14.50;63.20;;;;;;4991508;28;20544;-71
2022/04/30 07:19:04;;;;;;;51.27;29.27;;;14.70;64.00;;;;;;4991436;28;20178;-71
2022/04/30 07:21:31;;;;;;;41.53;26.20;;;15.40;57.50;;;;;;4991382;28;20442;-70
2022/04/30 07:23:57;;;;;;;41.90;27.63;;;14.70;59.20;;;;;;4991852;28;20500;-71
2022/04/30 07:26:23;;;;;;;41.27;27.60;;;14.90;58.80;;;;;;4994978;28;20469;-70
2022/04/30 07:28:49;;;;;;;39.17;26.57;;;14.60;60.90;;;;;;4994885;28;20418;-71
2022/04/30 07:31:15;;;;;;;45.83;27.80;;;14.00;65.00;;;;;;4995033;28;20684;-70
2022/04/30 07:33:41;;;;;;;46.53;28.30;;;13.80;67.50;;;;;;4994735;28;20190;-71
2022/04/30 07:36:07;;;;;;;44.67;28.00;;;13.70;70.90;;;;;;4995047;28;20171;-71
2022/04/30 07:38:33;;;;;;;43.40;28.40;;;14.10;67.30;;;;;;4994243;28;20429;-71
2022/04/30 07:40:58;;;;;;;43.67;28.03;;;14.10;67.70;;;;;;4994354;28;20432;-71
2022/04/30 07:43:24;;;;;;;45.30;28.40;;;13.90;67.50;;;;;;4994682;28;20233;-71
2022/04/30 07:45:50;;;;;;;40.70;26.30;;;13.80;69.80;;;;;;4994924;28;20209;-71
2022/04/30 07:48:15;;;;;;;44.57;27.67;;;13.40;72.00;;;;;;4994847;28;20178;-71
2022/04/30 07:50:44;;;;;;;46.43;29.50;;;13.40;72.80;;;;;;4994411;28;20185;-71
2022/04/30 07:53:11;;;;;;;46.50;29.43;;;13.70;74.70;;;;;;4994470;28;20451;-71
2022/04/30 07:55:37;;;;;;;51.10;29.73;;;14.10;68.60;;;;;;4976916;28;20853;-71
2022/04/30 07:58:02;;;;;;;46.90;28.77;;;14.20;67.80;;;;;;4994710;28;20444;-71
2022/04/30 08:00:29;;;;;;;47.00;29.07;;;14.30;66.00;;;;;;4994038;28;20174;-71
2022/04/30 08:02:56;;;;;;;47.60;28.90;;;14.00;66.30;;;;;;4994345;28;20271;-71
2022/04/30 08:05:25;;;;;;;41.43;27.50;;;13.70;71.00;;;;;;4994175;28;20428;-71
2022/04/30 08:07:51;;;;;;;42.83;27.40;;;14.00;68.70;;;;;;4994445;28;20933;-71
2022/04/30 08:10:17;;;;;;;75.30;41.13;;;13.80;71.40;;;;;;4994082;28;20412;-71
2022/04/30 08:12:43;;;;;;;54.70;33.80;;;14.30;67.60;;;;;;4994086;28;20460;-71
2022/04/30 08:15:09;;;;;;;45.70;29.10;;;14.60;64.80;;;;;;4994003;28;20419;-71
2022/04/30 08:17:35;;;;;;;48.60;29.03;;;14.40;65.50;;;;;;4994320;28;20423;-70
2022/04/30 08:20:01;;;;;;;49.83;30.00;;;13.90;68.90;;;;;;4994233;28;20174;-71
2022/04/30 08:22:27;;;;;;;49.97;31.67;;;13.70;73.70;;;;;;4993467;28;20449;-71
2022/04/30 08:24:53;;;;;;;51.93;31.10;;;14.00;69.80;;;;;;4994027;28;20419;-71
2022/04/30 08:27:19;;;;;;;50.93;29.97;;;14.40;67.50;;;;;;4994261;28;20266;-71
2022/04/30 08:29:44;;;;;;;40.30;28.00;;;14.30;67.50;;;;;;4993875;28;20531;-71
2022/04/30 08:32:10;;;;;;;45.60;29.07;;;14.10;67.70;;;;;;4993631;28;20689;-71
2022/04/30 08:34:36;;;;;;;39.17;28.33;;;14.70;62.60;;;;;;4993673;28;20170;-71
2022/04/30 08:37:02;;;;;;;44.90;28.43;;;14.70;67.20;;;;;;4993891;28;20408;-71
2022/04/30 08:39:27;;;;;;;47.00;30.70;;;14.90;62.60;;;;;;4993862;28;20167;-71
2022/04/30 08:41:53;;;;;;;38.10;26.80;;;14.70;67.80;;;;;;4993736;28;20236;-71
2022/04/30 08:44:19;;;;;;;38.10;26.80;;;14.90;59.80;;;;;;4993190;28;20193;-70
2022/04/30 08:46:45;;;;;;;42.37;28.30;;;14.70;64.00;;;;;;4993669;28;20186;-71
2022/04/30 08:49:12;;;;;;;38.27;26.40;;;15.00;59.20;;;;;;4993601;28;20678;-71
2022/04/30 08:51:38;;;;;;;39.20;26.47;;;14.40;64.20;;;;;;4993391;28;20456;-71
2022/04/30 08:54:05;;;;;;;35.20;25.17;;;14.10;67.80;;;;;;4993603;28;20445;-71
2022/04/30 08:56:33;;;;;;;34.77;25.80;;;14.30;63.50;;;;;;4993265;28;20479;-71
2022/04/30 08:59:04;;;;;;;37.27;26.43;;;14.20;65.00;;;;;;4993397;28;20927;-71
2022/04/30 09:01:43;;;;;;;41.53;24.97;;;14.70;61.30;;;;;;4993373;28;20441;-71
2022/04/30 09:04:08;;;;;;;33.43;25.53;;;14.80;60.10;;;;;;4993227;28;20393;-71
2022/04/30 09:06:43;;;;;;;30.53;21.90;;;15.40;59.10;;;;;;4993137;28;20409;-71
2022/04/30 09:09:09;;;;;;;31.87;22.13;;;15.30;53.80;;;;;;4992661;28;20571;-71
2022/04/30 09:11:38;;;;;;;34.03;23.37;;;14.80;57.90;;;;;;4993026;28;20456;-70
2022/04/30 09:14:03;;;;;;;33.87;23.20;;;15.00;57.60;;;;;;4993105;28;20190;-71
2022/04/30 09:16:29;;;;;;;31.77;24.40;;;15.00;58.20;;;;;;4993052;28;20405;-71
2022/04/30 09:19:03;;;;;;;29.57;21.43;;;15.80;56.20;;;;;;4992741;28;20174;-71
2022/04/30 09:21:29;;;;;;;25.67;20.50;;;15.40;54.50;;;;;;4992913;28;20189;-71
2022/04/30 09:24:05;;;;;;;29.10;21.97;;;15.70;50.90;;;;;;4992933;28;20519;-71
2022/04/30 09:26:41;;;;;;;29.27;19.30;;;16.30;52.00;;;;;;4993301;28;20556;-71
2022/04/30 09:29:23;;;;;;;25.87;18.50;;;16.70;48.40;;;;;;4992422;28;20426;-71
2022/04/30 09:31:52;;;;;;;28.57;17.30;;;16.20;51.20;;;;;;4992078;28;20565;-71
2022/04/30 09:40:01;;;;;;;26.30;18.53;;;16.00;52.90;;;;;;4992161;28;20483;-70
2022/04/30 09:42:38;;;;;;;22.80;16.47;;;15.70;51.00;;;;;;4992430;28;20436;-70
2022/04/30 09:45:04;;;;;;;23.63;15.97;;;15.60;51.70;;;;;;4992351;28;20185;-71
2022/04/30 09:47:33;;;;;;;20.10;13.63;;;15.80;52.30;;;;;;4992032;28;20408;-70
2022/04/30 09:55:34;;;;;;;18.47;14.43;;;16.00;51.10;;;;;;4992559;28;20820;-70
2022/04/30 09:58:03;;;;;;;22.20;14.77;;;15.60;50.30;;;;;;4992885;28;20485;-71
2022/04/30 10:00:35;;;;;;;19.63;15.23;;;16.10;48.60;;;;;;4992056;28;20410;-72
2022/04/30 10:03:02;;;;;;;21.50;17.00;;;17.10;48.10;;;;;;4972508;28;20861;-71
2022/04/30 10:05:30;;;;;;;24.00;17.97;;;18.00;46.60;;;;;;4972897;28;20476;-71
2022/04/30 10:07:56;;;;;;;23.17;17.60;;;18.40;45.00;;;;;;4972893;28;20568;-71
2022/04/30 10:10:29;;;;;;;26.63;16.53;;;18.40;45.40;;;;;;4972869;28;20412;-71
2022/04/30 10:13:20;;;;;;;19.63;16.00;;;18.90;41.30;;;;;;4985826;28;20890;-72
2022/04/30 10:15:52;;;;;;;20.93;14.40;;;19.00;40.40;;;;;;4992197;28;20399;-71
2022/04/30 10:18:20;;;;;;;18.80;14.73;;;18.80;40.50;;;;;;4992398;28;20762;-71
2022/04/30 10:20:56;;;;;;;18.60;13.77;;;18.60;39.00;;;;;;4991989;28;20417;-71
2022/04/30 10:23:22;;;;;;;16.90;12.93;;;17.90;42.30;;;;;;4991293;28;20441;-71
2022/04/30 10:25:48;;;;;;;18.37;13.97;;;18.10;40.50;;;;;;4992047;28;20892;-72
2022/04/30 10:28:17;;;;;;;17.40;13.30;;;18.70;41.80;;;;;;4991913;28;20463;-70
2022/04/30 10:30:44;;;;;;;18.07;12.50;;;19.00;37.80;;;;;;4991797;28;20471;-72
2022/04/30 10:33:10;;;;;;;19.43;12.70;;;18.90;39.20;;;;;;4991416;28;20524;-70
2022/04/30 10:35:44;;;;;;;14.73;11.83;;;17.60;39.40;;;;;;4991392;28;20424;-71
2022/04/30 10:38:19;;;;;;;17.13;12.33;;;17.20;41.80;;;;;;4992019;28;20401;-71
2022/04/30 10:40:47;;;;;;;29.90;12.80;;;17.10;45.70;;;;;;4991916;28;20465;-71
2022/04/30 10:43:35;;;;;;;18.33;12.57;;;17.70;43.70;;;;;;4992200;28;20483;-71
2022/04/30 10:46:03;;;;;;;16.33;11.67;;;18.30;42.80;;;;;;4972063;28;20406;-71
2022/04/30 10:48:29;;;;;;;15.70;11.63;;;18.30;36.90;;;;;;4972589;28;20411;-72
2022/04/30 10:51:09;;;;;;;17.60;11.93;;;17.10;42.40;;;;;;4972164;28;20415;-71
2022/04/30 10:53:38;;;;;;;12.70;9.83;;;17.00;39.70;;;;;;4972221;28;20457;-71
2022/04/30 10:56:05;;;;;;;14.03;9.57;;;17.30;42.10;;;;;;4988946;28;20437;-71
2022/04/30 10:58:31;;;;;;;13.03;9.77;;;17.20;39.00;;;;;;4992325;28;20408;-71
2022/04/30 11:00:58;;;;;;;16.23;9.87;;;16.90;43.30;;;;;;4995731;28;20403;-71
2022/04/30 11:03:28;;;;;;;13.20;9.67;;;17.60;41.30;;;;;;4995563;28;20424;-71
2022/04/30 11:05:54;;;;;;;11.40;9.77;;;17.20;38.40;;;;;;4977816;28;20420;-71
2022/04/30 11:08:20;;;;;;;15.37;10.63;;;16.90;42.30;;;;;;4995671;28;20418;-72
2022/04/30 11:10:54;;;;;;;10.43;8.70;;;17.10;38.90;;;;;;4995207;28;20473;-71
2022/04/30 11:13:21;;;;;;;15.57;9.57;;;16.60;40.60;;;;;;4995888;28;20784;-71
2022/04/30 11:15:48;;;;;;;13.57;10.40;;;17.10;39.20;;;;;;4995077;28;20950;-71
2022/04/30 11:18:18;;;;;;;12.67;10.50;;;17.60;40.20;;;;;;4995718;28;20399;-71
2022/04/30 11:20:44;;;;;;;13.40;10.93;;;18.20;41.00;;;;;;4995175;28;20425;-71
2022/04/30 11:23:21;;;;;;;15.40;10.77;;;19.40;38.40;;;;;;4995106;28;20438;-71
2022/04/30 11:25:47;;;;;;;14.30;11.83;;;19.80;38.00;;;;;;4995073;28;20154;-71
2022/04/30 11:28:12;;;;;;;14.43;11.10;;;19.80;36.60;;;;;;4994886;28;20422;-71
2022/04/30 11:30:39;;;;;;;14.30;11.23;;;19.30;37.10;;;;;;4995567;28;20197;-71
2022/04/30 11:33:05;;;;;;;15.07;12.50;;;19.30;36.20;;;;;;4994939;28;20216;-72
2022/04/30 11:35:31;;;;;;;17.20;12.33;;;19.00;37.50;;;;;;4995091;28;20410;-71
2022/04/30 11:37:57;;;;;;;26.93;12.87;;;18.70;37.50;;;;;;4994907;28;20486;-71
2022/04/30 11:40:23;;;;;;;15.03;12.13;;;18.40;39.20;;;;;;4995000;28;20313;-71
2022/04/30 11:42:56;;;;;;;13.67;11.30;;;18.30;39.30;;;;;;4994707;28;20261;-72
2022/04/30 11:45:40;;;;;;;19.53;12.90;;;18.30;38.80;;;;;;4977279;28;20422;-71
2022/04/30 11:48:06;;;;;;;16.47;13.13;;;18.20;38.60;;;;;;4994654;28;20450;-70
2022/04/30 11:50:32;;;;;;;17.93;13.30;;;18.20;39.40;;;;;;4994346;28;20445;-71
2022/04/30 11:52:58;;;;;;;16.90;12.17;;;18.50;40.20;;;;;;4994821;28;20866;-72
2022/04/30 11:55:24;;;;;;;15.53;11.40;;;18.60;38.40;;;;;;4995577;28;20406;-71
2022/04/30 11:57:50;;;;;;;16.40;12.13;;;18.80;37.90;;;;;;4994795;28;20433;-70
2022/04/30 12:00:18;;;;;;;17.77;11.17;;;18.90;40.00;;;;;;4994838;28;20220;-71
2022/04/30 12:02:48;;;;;;;15.57;12.13;;;19.20;39.40;;;;;;4974938;28;20440;-72
2022/04/30 12:05:15;;;;;;;13.63;10.83;;;19.60;36.10;;;;;;4974928;28;20562;-71
2022/04/30 12:07:43;;;;;;;13.57;11.00;;;20.10;35.50;;;;;;4975030;28;20913;-72
2022/04/30 12:10:20;;;;;;;15.50;11.63;;;20.10;35.00;;;;;;4974523;28;20420;-72
2022/04/30 12:12:46;;;;;;;12.90;10.73;;;20.70;34.10;;;;;;4989278;28;20544;-71
2022/04/30 12:15:16;;;;;;;12.73;10.40;;;21.50;30.40;;;;;;4994372;28;20423;-71
2022/04/30 12:17:42;;;;;;;11.00;9.40;;;21.80;30.90;;;;;;4994209;28;20501;-72
2022/04/30 12:26:05;;;;;;;11.50;9.30;;;20.00;34.50;;;;;;4994496;28;20421;-71
2022/04/30 12:28:45;;;;;;;9.97;8.27;;;19.80;31.90;;;;;;4994215;28;20419;-70
2022/04/30 12:31:11;;;;;;;9.07;7.10;;;17.70;33.80;;;;;;4993968;28;20455;-71
2022/04/30 12:33:45;;;;;;;10.60;8.03;;;16.60;38.50;;;;;;4993297;28;20437;-70
2022/04/30 12:36:12;;;;;;;13.67;8.93;;;15.80;41.90;;;;;;4994191;28;20420;-71
2022/04/30 12:38:37;;;;;;;10.83;8.47;;;15.00;45.20;;;;;;4994063;28;20409;-71
2022/04/30 12:41:06;;;;;;;14.87;9.13;;;15.10;46.10;;;;;;4993991;28;20417;-71
2022/04/30 12:43:36;;;;;;;13.33;9.83;;;14.90;47.00;;;;;;4993269;28;20198;-71
2022/04/30 12:46:03;;;;;;;13.50;10.30;;;14.70;50.40;;;;;;4993806;28;20417;-71
2022/04/30 12:48:31;;;;;;;16.70;11.07;;;14.50;50.40;;;;;;4993588;28;20780;-71
2022/04/30 12:50:57;;;;;;;15.63;11.40;;;14.80;52.50;;;;;;4993494;28;20848;-70
2022/04/30 12:53:23;;;;;;;31.30;10.80;;;15.60;49.20;;;;;;4993167;28;20491;-71
2022/04/30 12:55:51;;;;;;;14.83;10.30;;;16.30;44.70;;;;;;4975819;28;20186;-71
2022/04/30 12:58:16;;;;;;;11.63;9.20;;;16.30;43.30;;;;;;4993467;28;20170;-71
2022/04/30 13:00:44;;;;;;;11.30;8.50;;;15.90;43.60;;;;;;4993631;28;20550;-71
2022/04/30 13:03:10;;;;;;;12.33;9.17;;;15.30;44.70;;;;;;4993047;28;20236;-71
2022/04/30 13:05:36;;;;;;;10.57;9.00;;;15.50;45.20;;;;;;4992892;28;20901;-71
2022/04/30 13:08:02;;;;;;;13.53;9.30;;;15.70;45.60;;;;;;4993399;28;20409;-71
2022/04/30 13:15:56;;;;;;;19.10;13.73;;;18.00;45.60;;;;;;4992918;28;20944;-71